createdAt,value
2018-07-28T00:02:27.838Z,95665.66
2018-07-28T00:04:56.446Z,95668.59
2018-07-28T00:07:32.225Z,95664.48
2018-07-28T00:10:00.801Z,95666.97
2018-07-28T00:12:29.425Z,95667.66
2018-07-28T00:14:57.975Z,95677.11
2018-07-28T00:17:26.693Z,95675.20
2018-07-28T00:19:55.293Z,95677.66
2018-07-28T00:22:23.873Z,95677.44
2018-07-28T00:24:52.540Z,95686.27
2018-07-28T00:27:21.105Z,95678.54
2018-07-28T00:29:49.684Z,95681.67
2018-07-28T00:32:18.302Z,95682.42
2018-07-28T00:34:46.873Z,95673.58
2018-07-28T00:37:15.432Z,95675.38
2018-07-28T00:39:43.972Z,95680.08
2018-07-28T00:42:12.585Z,95671.75
2018-07-28T00:44:41.249Z,95672.40
2018-07-28T00:47:11.124Z,95671.70
2018-07-28T00:49:39.720Z,95672.97
2018-07-28T00:52:08.358Z,95668.98
2018-07-28T00:54:37.047Z,95668.05
2018-07-28T00:57:05.680Z,95662.36
2018-07-28T00:59:34.432Z,95670.23
2018-07-28T01:02:03.079Z,95660.59
2018-07-28T01:04:31.652Z,95656.00
2018-07-28T01:07:00.256Z,95650.82
2018-07-28T01:09:28.837Z,95651.05
2018-07-28T01:11:57.468Z,95651.25
2018-07-28T01:14:26.020Z,95654.09
2018-07-28T01:16:54.592Z,95653.02
2018-07-28T01:19:23.408Z,95655.53
2018-07-28T01:21:52.060Z,95647.44
2018-07-28T01:24:20.785Z,95643.01
2018-07-28T01:26:49.368Z,95636.27
2018-07-28T01:29:19.063Z,95634.52
2018-07-28T01:31:49.052Z,95627.59
2018-07-28T01:34:18.124Z,95638.77
2018-07-28T01:36:46.716Z,95628.47
2018-07-28T01:39:15.698Z,95629.07
2018-07-28T01:41:45.008Z,95627.30
2018-07-28T01:44:13.769Z,95620.56
2018-07-28T01:46:42.349Z,95618.58
2018-07-28T01:49:12.149Z,95617.31
2018-07-28T01:51:40.826Z,95616.64
2018-07-28T01:54:09.459Z,95608.86
2018-07-28T01:56:38.195Z,95617.30
2018-07-28T01:59:06.864Z,95618.49
2018-07-28T02:01:35.505Z,95614.66
2018-07-28T02:04:04.068Z,95609.94
2018-07-28T02:06:33.545Z,95607.95
2018-07-28T02:09:02.145Z,95605.16
2018-07-28T02:11:30.805Z,95609.13
2018-07-28T02:13:59.404Z,95607.72
2018-07-28T02:16:28.045Z,95605.38
2018-07-28T02:18:56.774Z,95605.47
2018-07-28T02:21:25.414Z,95601.92
2018-07-28T02:23:54.060Z,95605.63
2018-07-28T02:26:22.710Z,95590.56
2018-07-28T02:28:51.312Z,95596.97
2018-07-28T02:31:19.906Z,95591.64
2018-07-28T02:33:48.551Z,95589.75
2018-07-28T02:36:17.121Z,95585.55
2018-07-28T02:38:45.861Z,95580.84
2018-07-28T02:41:14.509Z,95587.92
2018-07-28T02:43:43.121Z,95585.63
2018-07-28T02:46:11.755Z,95586.26
2018-07-28T02:48:40.390Z,95582.94
2018-07-28T02:51:09.028Z,95583.33
2018-07-28T02:53:41.848Z,95576.16
2018-07-28T02:56:10.451Z,95576.42
2018-07-28T02:58:39.362Z,95583.67
2018-07-28T03:01:09.064Z,95588.36
2018-07-28T03:03:38.437Z,95588.20
2018-07-28T03:06:07.022Z,95582.89
2018-07-28T03:08:35.574Z,95590.08
2018-07-28T03:11:04.251Z,95579.19
2018-07-28T03:13:32.827Z,95583.81
2018-07-28T03:16:01.405Z,95583.81
2018-07-28T03:18:30.049Z,95586.41
2018-07-28T03:20:58.587Z,95588.72
2018-07-28T03:23:27.306Z,95584.68
2018-07-28T03:25:55.864Z,95584.19
2018-07-28T03:28:24.461Z,95581.40
2018-07-28T03:30:53.032Z,95585.53
2018-07-28T03:33:21.612Z,95590.13
2018-07-28T03:35:50.156Z,95589.30
2018-07-28T03:38:18.730Z,95590.38
2018-07-28T03:40:47.453Z,95590.56
2018-07-28T03:43:16.080Z,95596.58
2018-07-28T03:45:44.801Z,95595.57
2018-07-28T03:48:13.479Z,95600.19
2018-07-28T03:50:42.208Z,95595.66
2018-07-28T03:53:11.007Z,95600.19
2018-07-28T03:55:40.345Z,95593.97
2018-07-28T03:58:08.923Z,95599.42
2018-07-28T04:00:37.587Z,95599.55
2018-07-28T04:03:06.360Z,95607.52
2018-07-28T04:05:35.679Z,95603.61
2018-07-28T04:08:05.165Z,95610.55
2018-07-28T04:10:33.906Z,95608.76
2018-07-28T04:13:02.532Z,95610.02
2018-07-28T04:15:31.203Z,95613.63
2018-07-28T04:17:59.887Z,95613.25
2018-07-28T04:20:28.981Z,95619.75
2018-07-28T04:22:57.563Z,95616.95
2018-07-28T04:25:26.161Z,95609.97
2018-07-28T04:27:54.783Z,95607.56
2018-07-28T04:30:23.383Z,95611.89
2018-07-28T04:32:51.987Z,95613.63
2018-07-28T04:35:20.577Z,95613.97
2018-07-28T04:37:49.156Z,95612.63
2018-07-28T04:40:17.708Z,95615.84
2018-07-28T04:42:46.296Z,95617.09
2018-07-28T04:45:14.920Z,95617.33
2018-07-28T04:47:43.453Z,95614.53
2018-07-28T04:50:12.017Z,95614.53
2018-07-28T04:52:40.624Z,95614.11
2018-07-28T04:55:09.430Z,95607.55
2018-07-28T04:57:38.134Z,95610.31
2018-07-28T05:00:06.837Z,95614.55
2018-07-28T05:02:35.538Z,95608.97
2018-07-28T05:05:04.355Z,95620.38
2018-07-28T05:07:33.018Z,95617.34
2018-07-28T05:10:01.525Z,95612.77
2018-07-28T05:12:30.149Z,95614.78
2018-07-28T05:14:58.751Z,95621.95
2018-07-28T05:17:27.367Z,95615.92
2018-07-28T05:19:55.947Z,95623.09
2018-07-28T05:22:24.546Z,95626.39
2018-07-28T05:24:53.592Z,95621.22
2018-07-28T05:27:22.240Z,95620.67
2018-07-28T05:29:50.806Z,95630.11
2018-07-28T05:32:19.426Z,95624.16
2018-07-28T05:34:48.003Z,95620.09
2018-07-28T05:37:16.819Z,95609.61
2018-07-28T05:39:45.309Z,95614.04
2018-07-28T05:42:13.896Z,95608.18
2018-07-28T05:44:42.487Z,95601.97
2018-07-28T05:47:11.184Z,95606.03
2018-07-28T05:49:39.772Z,95596.81
2018-07-28T05:52:08.474Z,95595.41
2018-07-28T05:54:37.043Z,95600.48
2018-07-28T05:57:05.676Z,95602.44
2018-07-28T05:59:34.266Z,95609.34
2018-07-28T06:02:02.902Z,95601.83
2018-07-28T06:04:31.503Z,95601.56
2018-07-28T06:07:00.886Z,95602.26
2018-07-28T06:09:29.571Z,95611.31
2018-07-28T06:11:58.165Z,95611.24
2018-07-28T06:14:26.956Z,95612.06
2018-07-28T06:16:55.533Z,95608.48
2018-07-28T06:19:24.269Z,95611.17
2018-07-28T06:21:52.883Z,95604.77
2018-07-28T06:24:21.552Z,95601.19
2018-07-28T06:26:50.104Z,95597.95
2018-07-28T06:29:18.700Z,95594.56
2018-07-28T06:31:47.312Z,95598.16
2018-07-28T06:34:15.880Z,95590.84
2018-07-28T06:36:44.468Z,95591.66
2018-07-28T06:39:14.374Z,95591.64
2018-07-28T06:41:43.039Z,95590.61
2018-07-28T06:44:11.646Z,95588.18
2018-07-28T06:46:40.507Z,95588.14
2018-07-28T06:49:09.789Z,95580.80
2018-07-28T06:51:38.401Z,95576.93
2018-07-28T06:54:06.982Z,95576.72
2018-07-28T06:56:35.619Z,95575.84
2018-07-28T06:59:04.250Z,95569.05
2018-07-28T07:01:32.927Z,95566.82
2018-07-28T07:04:01.492Z,95568.74
2018-07-28T07:06:30.092Z,95569.42
2018-07-28T07:08:58.710Z,95570.56
2018-07-28T07:11:27.288Z,95566.32
2018-07-28T07:13:55.857Z,95570.61
2018-07-28T07:16:24.756Z,95567.80
2018-07-28T07:18:53.319Z,95569.58
2018-07-28T07:21:21.884Z,95564.17
2018-07-28T07:23:50.476Z,95561.34
2018-07-28T07:26:19.115Z,95563.83
2018-07-28T07:28:47.840Z,95569.50
2018-07-28T07:31:16.440Z,95574.62
2018-07-28T07:33:45.022Z,95571.92
2018-07-28T07:36:13.626Z,95574.68
2018-07-28T07:38:42.215Z,95575.99
2018-07-28T07:41:10.864Z,95574.99
2018-07-28T07:43:39.428Z,95578.11
2018-07-28T07:46:08.023Z,95579.42
2018-07-28T07:48:37.083Z,95582.99
2018-07-28T07:51:05.699Z,95581.51
2018-07-28T07:53:34.288Z,95584.93
2018-07-28T07:56:02.876Z,95583.88
2018-07-28T07:58:31.491Z,95588.70
2018-07-28T08:01:00.060Z,95590.02
2018-07-28T08:03:28.711Z,95589.17
2018-07-28T08:05:58.063Z,95593.37
2018-07-28T08:08:26.628Z,95591.37
2018-07-28T08:10:55.212Z,95592.25
2018-07-28T08:13:23.865Z,95591.44
2018-07-28T08:15:52.435Z,95592.88
2018-07-28T08:18:20.999Z,95594.45
2018-07-28T08:20:49.624Z,95599.92
2018-07-28T08:23:18.223Z,95595.53
2018-07-28T08:25:46.806Z,95593.80
2018-07-28T08:28:15.383Z,95599.03
2018-07-28T08:30:44.028Z,95601.02
2018-07-28T08:33:14.871Z,95600.56
2018-07-28T08:35:43.412Z,95604.61
2018-07-28T08:38:11.990Z,95598.45
2018-07-28T08:40:40.641Z,95590.77
2018-07-28T08:43:09.256Z,95594.41
2018-07-28T08:45:37.825Z,95595.39
2018-07-28T08:48:06.624Z,95591.38
2018-07-28T08:50:35.326Z,95591.47
2018-07-28T08:53:04.028Z,95597.59
2018-07-28T08:55:32.740Z,95597.70
2018-07-28T08:58:01.350Z,95591.78
2018-07-28T09:00:29.933Z,95591.96
2018-07-28T09:02:58.539Z,95585.23
2018-07-28T09:05:27.164Z,95583.11
2018-07-28T09:07:55.882Z,95582.86
2018-07-28T09:10:24.669Z,95587.03
2018-07-28T09:12:53.292Z,95583.74
2018-07-28T09:15:21.920Z,95588.69
2018-07-28T09:17:50.583Z,95590.08
2018-07-28T09:20:19.135Z,95588.45
2018-07-28T09:22:47.769Z,95585.02
2018-07-28T09:25:16.401Z,95582.55
2018-07-28T09:27:44.960Z,95577.56
2018-07-28T09:30:13.614Z,95581.06
2018-07-28T09:32:42.273Z,95576.73
2018-07-28T09:35:11.073Z,95573.87
2018-07-28T09:37:39.713Z,95578.70
2018-07-28T09:40:08.371Z,95582.08
2018-07-28T09:42:37.131Z,95584.06
2018-07-28T09:45:06.711Z,95589.52
2018-07-28T09:47:35.478Z,95587.97
2018-07-28T09:50:04.267Z,95587.82
2018-07-28T09:52:32.893Z,95592.27
2018-07-28T09:55:01.464Z,95594.02
2018-07-28T09:57:30.036Z,95589.20
2018-07-28T09:59:58.604Z,95587.34
2018-07-28T10:02:27.248Z,95581.45
2018-07-28T10:04:55.867Z,95580.06
2018-07-28T10:07:26.165Z,95582.66
2018-07-28T10:09:55.244Z,95572.91
2018-07-28T10:12:23.995Z,95574.83
2018-07-28T10:14:54.207Z,95570.96
2018-07-28T10:17:22.998Z,95577.47
2018-07-28T10:19:51.623Z,95579.72
2018-07-28T10:22:20.408Z,95570.36
2018-07-28T10:24:55.791Z,95572.23
2018-07-28T10:27:24.408Z,95572.24
2018-07-28T10:29:52.985Z,95568.41
2018-07-28T10:32:21.776Z,95560.57
2018-07-28T10:34:50.337Z,95561.20
2018-07-28T10:37:18.940Z,95565.86
2018-07-28T10:39:47.517Z,95567.50
2018-07-28T10:42:16.085Z,95565.93
2018-07-28T10:44:44.684Z,95566.63
2018-07-28T10:47:13.405Z,95558.34
2018-07-28T10:49:42.029Z,95555.80
2018-07-28T10:52:10.611Z,95558.98
2018-07-28T10:54:39.320Z,95555.28
2018-07-28T10:57:07.945Z,95554.09
2018-07-28T10:59:36.496Z,95551.10
2018-07-28T11:02:05.146Z,95556.53
2018-07-28T11:04:33.784Z,95555.67
2018-07-28T11:07:02.359Z,95555.38
2018-07-28T11:09:30.935Z,95554.31
2018-07-28T11:11:59.492Z,95563.86
2018-07-28T11:14:28.073Z,95559.17
2018-07-28T11:16:56.672Z,95586.19
2018-07-28T11:19:25.319Z,95594.44
2018-07-28T11:21:53.928Z,95600.86
2018-07-28T11:24:22.560Z,95601.77
2018-07-28T11:26:51.183Z,95589.92
2018-07-28T11:29:20.133Z,95598.20
2018-07-28T11:31:59.917Z,95607.82
2018-07-28T11:34:39.560Z,95592.78
2018-07-28T11:39:21.061Z,95599.75
2018-07-28T11:42:00.630Z,95601.78
2018-07-28T11:44:40.436Z,95607.52
2018-07-28T11:47:09.237Z,95592.88
2018-07-28T11:49:37.840Z,95587.67
2018-07-28T11:52:06.732Z,95588.71
2018-07-28T11:54:35.295Z,95592.55
2018-07-28T11:57:04.133Z,95605.76
2018-07-28T11:59:32.737Z,95611.45
2018-07-28T12:02:01.323Z,95611.64
2018-07-28T12:04:29.867Z,95608.28
2018-07-28T12:06:58.456Z,95609.02
2018-07-28T12:09:27.173Z,95596.84
2018-07-28T12:11:56.593Z,95606.17
2018-07-28T12:14:26.130Z,95607.84
2018-07-28T12:16:54.747Z,95606.28
2018-07-28T12:19:25.746Z,95603.59
2018-07-28T12:21:54.568Z,95598.38
2018-07-28T12:24:23.235Z,95585.34
2018-07-28T12:26:51.781Z,95590.89
2018-07-28T12:29:20.434Z,95577.97
2018-07-28T12:31:49.025Z,95580.69
2018-07-28T12:34:17.571Z,95563.75
2018-07-28T12:36:46.179Z,95564.66
2018-07-28T12:39:14.868Z,95557.78
2018-07-28T12:41:43.508Z,95559.92
2018-07-28T12:44:12.109Z,95556.52
2018-07-28T12:46:40.919Z,95557.62
2018-07-28T12:49:09.569Z,95555.23
2018-07-28T12:51:38.132Z,95558.16
2018-07-28T12:54:06.712Z,95550.74
2018-07-28T12:56:35.300Z,95552.83
2018-07-28T12:59:04.029Z,95554.41
2018-07-28T13:01:32.639Z,95554.92
2018-07-28T13:04:01.271Z,95555.45
2018-07-28T13:06:29.842Z,95554.64
2018-07-28T13:08:58.478Z,95554.08
2018-07-28T13:11:27.091Z,95554.52
2018-07-28T13:13:55.648Z,95550.73
2018-07-28T13:16:24.377Z,95548.81
2018-07-28T13:18:52.929Z,95535.42
2018-07-28T13:21:21.545Z,95539.34
2018-07-28T13:23:50.174Z,95539.55
2018-07-28T13:26:18.739Z,95543.22
2018-07-28T13:28:47.346Z,95531.33
2018-07-28T13:31:16.023Z,95534.98
2018-07-28T13:33:44.568Z,95538.97
2018-07-28T13:36:13.365Z,95545.82
2018-07-28T13:38:41.984Z,95547.99
2018-07-28T13:41:10.586Z,95545.33
2018-07-28T13:43:39.228Z,95537.00
2018-07-28T13:46:07.868Z,95547.20
2018-07-28T13:48:36.560Z,95538.77
2018-07-28T13:51:05.207Z,95538.77
2018-07-28T13:53:34.923Z,95548.85
2018-07-28T13:56:03.664Z,95539.08
2018-07-28T13:58:32.356Z,95531.62
2018-07-28T14:01:01.051Z,95539.59
2018-07-28T14:03:30.590Z,95540.40
2018-07-28T14:06:00.151Z,95543.32
2018-07-28T14:08:28.712Z,95553.12
2018-07-28T14:10:57.338Z,95548.61
2018-07-28T14:13:26.068Z,95547.56
2018-07-28T14:15:54.633Z,95553.92
2018-07-28T14:18:23.411Z,95551.82
2018-07-28T14:20:52.015Z,95554.41
2018-07-28T14:23:20.844Z,95558.10
2018-07-28T14:25:49.372Z,95556.75
2018-07-28T14:28:17.939Z,95558.86
2018-07-28T14:30:46.515Z,95553.57
2018-07-28T14:33:15.191Z,95560.23
2018-07-28T14:35:43.756Z,95557.64
2018-07-28T14:38:12.362Z,95562.14
2018-07-28T14:40:40.899Z,95554.98
2018-07-28T14:43:09.539Z,95553.91
2018-07-28T14:45:38.265Z,95556.51
2018-07-28T14:48:06.788Z,95555.66
2018-07-28T14:50:35.387Z,95557.47
2018-07-28T14:53:03.946Z,95556.36
2018-07-28T14:55:32.603Z,95555.02
2018-07-28T14:58:01.307Z,95560.05
2018-07-28T15:00:30.118Z,95558.20
2018-07-28T15:02:58.872Z,95553.95
2018-07-28T15:05:27.673Z,95557.58
2018-07-28T15:07:56.376Z,95552.28
2018-07-28T15:10:24.989Z,95553.06
2018-07-28T15:12:53.542Z,95550.70
2018-07-28T15:15:22.138Z,95553.34
2018-07-28T15:17:50.777Z,95545.96
2018-07-28T15:20:19.452Z,95548.89
2018-07-28T15:22:48.059Z,95551.03
2018-07-28T15:25:16.667Z,95551.16
2018-07-28T15:27:45.228Z,95552.53
2018-07-28T15:30:13.844Z,95552.59
2018-07-28T15:32:42.449Z,95548.37
2018-07-28T15:35:11.225Z,95542.50
2018-07-28T15:37:39.819Z,95541.47
2018-07-28T15:40:08.453Z,95533.77
2018-07-28T15:42:37.053Z,95534.59
2018-07-28T15:45:05.689Z,95531.91
2018-07-28T15:47:34.409Z,95522.64
2018-07-28T15:50:03.063Z,95525.78
2018-07-28T15:52:31.703Z,95523.67
2018-07-28T15:55:00.385Z,95511.73
2018-07-28T15:57:28.961Z,95516.00
2018-07-28T15:59:57.555Z,95512.81
2018-07-28T16:02:26.119Z,95518.13
2018-07-28T16:04:55.521Z,95512.27
2018-07-28T16:07:24.426Z,95518.64
2018-07-28T16:09:52.984Z,95519.18
2018-07-28T16:12:21.696Z,95514.41
2018-07-28T16:14:50.307Z,95511.24
2018-07-28T16:17:18.919Z,95517.59
2018-07-28T16:19:47.470Z,95513.59
2018-07-28T16:22:16.060Z,95515.18
2018-07-28T16:24:44.655Z,95516.25
2018-07-28T16:27:13.610Z,95517.58
2018-07-28T16:29:42.184Z,95523.97
2018-07-28T16:32:11.036Z,95526.03
2018-07-28T16:34:39.635Z,95527.59
2018-07-28T16:37:08.255Z,95530.47
2018-07-28T16:39:36.965Z,95530.91
2018-07-28T16:42:05.622Z,95533.77
2018-07-28T16:44:34.467Z,95532.52
2018-07-28T16:47:03.022Z,95533.02
2018-07-28T16:49:31.606Z,95540.25
2018-07-28T16:52:00.188Z,95539.96
2018-07-28T16:54:28.774Z,95540.00
2018-07-28T16:56:57.388Z,95538.73
2018-07-28T16:59:26.096Z,95540.86
2018-07-28T17:01:54.630Z,95542.70
2018-07-28T17:04:23.304Z,95550.50
2018-07-28T17:06:51.889Z,95561.67
2018-07-28T17:09:20.484Z,95564.45
2018-07-28T17:11:49.119Z,95572.58
2018-07-28T17:14:17.804Z,95577.69
2018-07-28T17:16:46.403Z,95585.98
2018-07-28T17:19:15.141Z,95587.30
2018-07-28T17:21:43.764Z,95590.10
2018-07-28T17:24:12.347Z,95589.98
2018-07-28T17:26:40.952Z,95594.70
2018-07-28T17:29:09.581Z,95596.42
2018-07-28T17:31:38.309Z,95604.22
2018-07-28T17:34:06.898Z,95600.77
2018-07-28T17:36:35.485Z,95609.05
2018-07-28T17:39:04.785Z,95609.98
2018-07-28T17:41:33.445Z,95612.47
2018-07-28T17:44:02.068Z,95617.05
2018-07-28T17:46:30.727Z,95615.34
2018-07-28T17:48:59.343Z,95613.08
2018-07-28T17:51:27.928Z,95615.91
2018-07-28T17:53:56.586Z,95622.50
2018-07-28T17:56:25.177Z,95616.91
2018-07-28T17:58:53.840Z,95617.13
2018-07-28T18:01:22.586Z,95621.20
2018-07-28T18:03:51.340Z,95619.94
2018-07-28T18:06:20.937Z,95618.22
2018-07-28T18:08:49.620Z,95627.90
2018-07-28T18:11:18.236Z,95623.59
2018-07-28T18:13:47.281Z,95623.09
2018-07-28T18:16:22.608Z,95628.36
2018-07-28T18:18:51.248Z,95633.95
2018-07-28T18:21:19.901Z,95637.86
2018-07-28T18:23:48.536Z,95648.84
2018-07-28T18:26:17.660Z,95652.73
2018-07-28T18:28:46.231Z,95657.98
2018-07-28T18:31:14.833Z,95660.68
2018-07-28T18:33:43.479Z,95674.73
2018-07-28T18:36:12.117Z,95671.66
2018-07-28T18:38:40.744Z,95685.08
2018-07-28T18:41:09.452Z,95691.02
2018-07-28T18:43:38.061Z,95696.08
2018-07-28T18:46:06.753Z,95707.06
2018-07-28T18:48:35.344Z,95712.56
2018-07-28T18:51:03.928Z,95719.71
2018-07-28T18:53:35.492Z,95727.17
2018-07-28T18:56:04.125Z,95731.92
2018-07-28T18:58:32.841Z,95734.05
2018-07-28T19:01:01.384Z,95744.97
2018-07-28T19:03:30.188Z,95747.98
2018-07-28T19:05:58.767Z,95753.31
2018-07-28T19:08:27.318Z,95755.73
2018-07-28T19:10:55.919Z,95757.09
2018-07-28T19:13:29.796Z,95759.22
2018-07-28T19:15:58.438Z,95757.29
2018-07-28T19:18:32.373Z,95760.48
2018-07-28T19:21:00.955Z,95761.88
2018-07-28T19:23:34.865Z,95768.81
2018-07-28T19:26:03.413Z,95769.22
2018-07-28T19:28:37.067Z,95769.45
2018-07-28T19:31:05.833Z,95774.34
2018-07-28T19:33:34.373Z,95779.67
2018-07-28T19:36:08.259Z,95787.33
2018-07-28T19:38:37.127Z,95782.66
2018-07-28T19:41:05.772Z,95787.55
2018-07-28T19:43:34.487Z,95784.14
2018-07-28T19:46:03.085Z,95789.05
2018-07-28T19:48:31.825Z,95787.66
2018-07-28T19:51:00.566Z,95791.40
2018-07-28T19:53:29.245Z,95798.81
2018-07-28T19:55:57.777Z,95793.77
2018-07-28T19:58:26.347Z,95792.38
2018-07-28T20:00:54.934Z,95801.52
2018-07-28T20:03:23.532Z,95798.81
2018-07-28T20:05:52.233Z,95804.87
2018-07-28T20:08:21.626Z,95798.31
2018-07-28T20:10:50.251Z,95800.71
2018-07-28T20:13:18.871Z,95793.50
2018-07-28T20:15:47.487Z,95808.30
2018-07-28T20:18:16.272Z,95797.44
2018-07-28T20:20:44.830Z,95797.79
2018-07-28T20:23:13.672Z,95799.39
2018-07-28T20:25:42.296Z,95796.95
2018-07-28T20:28:10.889Z,95796.83
2018-07-28T20:30:39.498Z,95805.56
2018-07-28T20:33:08.400Z,95805.61
2018-07-28T20:35:37.047Z,95808.23
2018-07-28T20:38:05.605Z,95806.92
2018-07-28T20:40:34.236Z,95805.73
2018-07-28T20:43:02.940Z,95807.25
2018-07-28T20:45:31.568Z,95813.73
2018-07-28T20:48:00.101Z,95812.97
2018-07-28T20:50:28.736Z,95816.97
2018-07-28T20:52:57.293Z,95814.11
2018-07-28T20:55:25.858Z,95811.60
2018-07-28T20:57:54.448Z,95811.02
2018-07-28T21:00:23.147Z,95813.02
2018-07-28T21:02:51.715Z,95817.02
2018-07-28T21:05:20.399Z,95814.89
2018-07-28T21:07:48.988Z,95821.31
2018-07-28T21:10:17.542Z,95818.48
2018-07-28T21:12:46.160Z,95815.05
2018-07-28T21:15:14.758Z,95815.16
2018-07-28T21:17:43.324Z,95825.88
2018-07-28T21:20:12.038Z,95827.33
2018-07-28T21:22:40.763Z,95828.67
2018-07-28T21:25:09.584Z,95835.03
2018-07-28T21:27:39.158Z,95827.52
2018-07-28T21:30:07.812Z,95835.24
2018-07-28T21:32:36.599Z,95836.97
2018-07-28T21:35:05.315Z,95835.89
2018-07-28T21:37:33.879Z,95837.95
2018-07-28T21:40:02.511Z,95837.83
2018-07-28T21:42:31.162Z,95839.76
2018-07-28T21:44:59.738Z,95838.82
2018-07-28T21:47:28.494Z,95831.08
2018-07-28T21:49:57.129Z,95832.97
2018-07-28T21:52:25.708Z,95840.64
2018-07-28T21:54:54.493Z,95840.82
2018-07-28T21:57:23.372Z,95839.59
2018-07-28T21:59:52.107Z,95850.16
2018-07-28T22:02:21.500Z,95852.77
2018-07-28T22:04:50.143Z,95850.58
2018-07-28T22:07:20.961Z,95848.46
2018-07-28T22:09:50.315Z,95854.87
2018-07-28T22:12:18.900Z,95861.55
2018-07-28T22:14:47.591Z,95863.66
2018-07-28T22:17:16.262Z,95863.56
2018-07-28T22:19:44.821Z,95861.95
2018-07-28T22:22:13.420Z,95863.28
2018-07-28T22:24:42.024Z,95860.46
2018-07-28T22:27:10.984Z,95860.97
2018-07-28T22:29:39.591Z,95868.73
2018-07-28T22:32:08.185Z,95866.83
2018-07-28T22:34:36.820Z,95868.94
2018-07-28T22:37:05.495Z,95864.48
2018-07-28T22:39:34.104Z,95868.41
2018-07-28T22:42:02.716Z,95867.63
2018-07-28T22:44:31.368Z,95869.11
2018-07-28T22:47:00.052Z,95862.98
2018-07-28T22:49:28.620Z,95869.42
2018-07-28T22:51:57.333Z,95868.73
2018-07-28T22:54:26.003Z,95870.42
2018-07-28T22:56:54.545Z,95877.67
2018-07-28T22:59:23.284Z,95873.06
2018-07-28T23:01:51.851Z,95874.88
2018-07-28T23:04:20.436Z,95874.88
2018-07-28T23:06:49.036Z,95872.67
2018-07-28T23:09:17.677Z,95868.75
2018-07-28T23:11:46.264Z,95865.73
2018-07-28T23:14:14.956Z,95864.23
2018-07-28T23:16:43.585Z,95868.32
2018-07-28T23:19:12.637Z,95873.66
2018-07-28T23:21:41.244Z,95877.18
2018-07-28T23:24:09.968Z,95878.77
2018-07-28T23:26:38.704Z,95879.09
2018-07-28T23:29:07.346Z,95882.41
2018-07-28T23:31:36.057Z,95885.51
2018-07-28T23:34:04.632Z,95880.61
2018-07-28T23:36:33.215Z,95880.00
2018-07-28T23:39:01.828Z,95874.45
2018-07-28T23:41:30.519Z,95880.41
2018-07-28T23:43:59.064Z,95874.24
2018-07-28T23:46:27.667Z,95870.73
2018-07-28T23:48:56.312Z,95872.45
2018-07-28T23:51:25.128Z,95875.67
2018-07-28T23:53:53.735Z,95881.91
2018-07-28T23:56:22.465Z,95876.07
2018-07-28T23:58:51.043Z,95880.28
